Time;durP1;ratioP1;P1;durP2;ratioP2;P2;SDS_P1;SDS_P2;PMS_P1;PMS_P2;Temp;Humidity;BMP_temperature;BMP_pressure;BME280_temperature;BME280_humidity;BME280_pressure;Samples;Min_cycle;Max_cycle;Signal;HPM_P1;HPM_P2
2022/09/28 00:01:48;;;;;;;18.00;13.75;;;;;;;;;;5074202;28;20671;-68
2022/09/28 00:04:17;;;;;;;21.35;16.92;;;;;;;;;;5073981;28;20198;-68
2022/09/28 00:06:45;;;;;;;24.02;15.95;;;;;;;;;;5074238;28;20201;-68
2022/09/28 00:09:13;;;;;;;19.33;14.98;;;;;;;;;;5074294;28;20208;-67
2022/09/28 00:11:40;;;;;;;23.17;14.93;;;;;;;;;;5074037;28;20197;-68
2022/09/28 00:14:07;;;;;;;24.98;14.50;;;;;;;;;;5074209;28;20654;-69
2022/09/28 00:16:36;;;;;;;26.05;17.45;;;;;;;;;;5073570;28;20666;-68
2022/09/28 00:19:04;;;;;;;23.55;15.82;;;;;;;;;;5074070;28;20193;-69
2022/09/28 00:21:33;;;;;;;38.90;20.75;;;;;;;;;;5073782;28;20271;-67
2022/09/28 00:24:14;;;;;;;25.60;17.42;;;;;;;;;;5074049;28;20724;-68
2022/09/28 00:26:42;;;;;;;30.50;18.60;;;;;;;;;;5074079;28;20194;-68
2022/09/28 00:29:14;;;;;;;30.10;17.27;;;;;;;;;;5074514;28;20204;-68
2022/09/28 00:31:41;;;;;;;28.42;17.45;;;;;;;;;;5075204;28;20204;-68
2022/09/28 00:34:08;;;;;;;23.10;16.40;;;;;;;;;;5074102;28;20201;-68
2022/09/28 00:36:37;;;;;;;20.98;15.52;;;;;;;;;;5073596;28;20200;-68
2022/09/28 00:39:06;;;;;;;28.02;17.75;;;;;;;;;;5073320;28;20674;-67
2022/09/28 00:41:33;;;;;;;25.00;16.60;;;;;;;;;;5073446;28;20218;-67
2022/09/28 00:44:19;;;;;;;25.50;18.30;;;;;;;;;;5073768;28;20201;-67
2022/09/28 00:46:46;;;;;;;21.90;15.35;;;;;;;;;;5072854;28;20655;-67
2022/09/28 00:49:16;;;;;;;27.23;17.50;;;;;;;;;;5073053;28;20191;-67
2022/09/28 00:51:46;;;;;;;24.40;16.95;;;;;;;;;;5074016;28;20198;-68
2022/09/28 00:54:13;;;;;;;28.35;17.85;;;;;;;;;;5073776;28;20307;-67
2022/09/28 00:56:43;;;;;;;23.70;16.77;;;;;;;;;;5073307;28;20201;-67
2022/09/28 00:59:10;;;;;;;24.65;18.27;;;;;;;;;;5073090;28;20200;-67
2022/09/28 01:01:38;;;;;;;25.85;17.58;;;;;;;;;;5073430;28;20217;-68
2022/09/28 01:04:06;;;;;;;23.45;16.60;;;;;;;;;;5073343;28;20196;-67
2022/09/28 01:06:34;;;;;;;26.40;17.75;;;;;;;;;;5073852;28;20272;-68
2022/09/28 01:09:04;;;;;;;26.52;18.65;;;;;;;;;;5073228;28;20198;-67
2022/09/28 01:11:32;;;;;;;21.77;17.23;;;;;;;;;;5073013;28;20226;-67
2022/09/28 01:14:00;;;;;;;23.07;16.30;;;;;;;;;;5073082;28;20201;-67
2022/09/28 01:16:32;;;;;;;25.65;17.70;;;;;;;;;;5072968;28;20477;-67
2022/09/28 01:19:02;;;;;;;30.53;19.10;;;;;;;;;;5073222;28;20190;-68
2022/09/28 01:21:29;;;;;;;27.00;18.33;;;;;;;;;;5073365;28;20441;-68
2022/09/28 01:24:08;;;;;;;25.88;18.58;;;;;;;;;;5073096;28;20217;-68
2022/09/28 01:27:02;;;;;;;27.90;18.80;;;;;;;;;;5073584;28;20210;-68
2022/09/28 01:29:38;;;;;;;28.80;20.75;;;;;;;;;;5048584;28;20197;-68
2022/09/28 01:32:13;;;;;;;29.55;20.67;;;;;;;;;;5073410;28;20192;-68
2022/09/28 01:34:44;;;;;;;29.47;19.40;;;;;;;;;;5072735;28;20186;-69
2022/09/28 01:37:13;;;;;;;26.35;19.30;;;;;;;;;;5073468;28;20428;-67
2022/09/28 01:39:43;;;;;;;28.17;20.77;;;;;;;;;;5073421;28;20193;-68
2022/09/28 01:42:12;;;;;;;32.50;21.17;;;;;;;;;;5073446;28;20218;-67
2022/09/28 01:44:42;;;;;;;30.60;20.92;;;;;;;;;;5072923;28;20448;-67
2022/09/28 01:47:11;;;;;;;25.27;19.73;;;;;;;;;;5072964;28;20193;-67
2022/09/28 01:49:40;;;;;;;29.08;20.05;;;;;;;;;;5072862;28;20925;-67
2022/09/28 01:52:11;;;;;;;32.20;20.40;;;;;;;;;;5073290;28;20542;-67
2022/09/28 01:54:41;;;;;;;26.27;19.75;;;;;;;;;;5072511;28;20631;-67
2022/09/28 01:57:10;;;;;;;28.05;18.92;;;;;;;;;;5073088;28;20199;-67
2022/09/28 01:59:39;;;;;;;25.45;18.02;;;;;;;;;;5073719;28;20202;-68
2022/09/28 02:02:10;;;;;;;26.63;19.70;;;;;;;;;;5076599;28;20573;-68
2022/09/28 02:04:39;;;;;;;25.15;18.52;;;;;;;;;;5076631;28;20182;-68
2022/09/28 02:07:08;;;;;;;27.08;18.65;;;;;;;;;;5076644;28;20194;-68
2022/09/28 02:09:36;;;;;;;26.23;19.42;;;;;;;;;;5076442;28;20197;-68
2022/09/28 02:12:06;;;;;;;30.70;18.00;;;;;;;;;;5076420;28;20198;-67
2022/09/28 02:14:35;;;;;;;20.35;15.90;;;;;;;;;;5076026;28;20198;-68
2022/09/28 02:17:02;;;;;;;22.13;17.05;;;;;;;;;;5076192;28;20226;-67
2022/09/28 02:19:31;;;;;;;24.85;17.52;;;;;;;;;;5076277;28;20198;-67
2022/09/28 02:22:02;;;;;;;21.30;17.05;;;;;;;;;;5076549;28;20214;-68
2022/09/28 02:24:34;;;;;;;20.13;15.32;;;;;;;;;;5076405;28;20200;-68
2022/09/28 02:27:04;;;;;;;17.65;14.95;;;;;;;;;;5077135;28;20200;-67
2022/09/28 02:29:31;;;;;;;23.33;16.30;;;;;;;;;;5076205;28;20197;-67
2022/09/28 02:31:58;;;;;;;23.48;15.77;;;;;;;;;;5076314;28;20208;-67
2022/09/28 02:34:25;;;;;;;24.63;16.80;;;;;;;;;;5075919;28;20197;-67
2022/09/28 02:36:54;;;;;;;19.23;16.10;;;;;;;;;;5076279;28;20285;-67
2022/09/28 02:39:21;;;;;;;23.73;15.02;;;;;;;;;;5075822;28;20289;-67
2022/09/28 02:41:52;;;;;;;21.92;16.05;;;;;;;;;;5076078;28;20288;-67
2022/09/28 02:44:29;;;;;;;24.02;16.42;;;;;;;;;;5076086;28;20186;-67
2022/09/28 02:46:59;;;;;;;20.00;15.40;;;;;;;;;;5075451;28;20194;-68
2022/09/28 02:49:31;;;;;;;19.58;15.55;;;;;;;;;;5075736;28;20190;-68
2022/09/28 02:52:06;;;;;;;20.95;16.40;;;;;;;;;;5075752;28;20186;-68
2022/09/28 02:54:39;;;;;;;21.27;17.05;;;;;;;;;;5075848;28;20208;-68
2022/09/28 02:57:16;;;;;;;19.67;15.02;;;;;;;;;;5076479;28;20265;-68
2022/09/28 02:59:53;;;;;;;21.92;15.45;;;;;;;;;;5075503;28;20205;-67
2022/09/28 03:02:24;;;;;;;19.05;13.98;;;;;;;;;;5075508;28;20258;-68
2022/09/28 03:05:00;;;;;;;18.60;14.82;;;;;;;;;;5075083;28;20194;-67
2022/09/28 03:07:31;;;;;;;17.77;14.93;;;;;;;;;;5075319;28;20185;-68
2022/09/28 03:10:02;;;;;;;22.58;14.00;;;;;;;;;;5074984;28;20194;-67
2022/09/28 03:12:30;;;;;;;22.40;14.32;;;;;;;;;;5075495;28;20183;-67
2022/09/28 03:15:07;;;;;;;18.35;14.30;;;;;;;;;;5075140;28;20192;-67
2022/09/28 03:17:34;;;;;;;15.40;13.50;;;;;;;;;;5075326;28;20222;-67
2022/09/28 03:20:02;;;;;;;15.80;13.40;;;;;;;;;;5074734;28;20210;-67
2022/09/28 03:22:30;;;;;;;16.52;12.82;;;;;;;;;;5074730;28;20217;-67
2022/09/28 03:24:58;;;;;;;20.75;13.85;;;;;;;;;;5074992;28;20582;-68
2022/09/28 03:27:25;;;;;;;17.98;13.77;;;;;;;;;;5074928;28;20196;-68
2022/09/28 03:29:52;;;;;;;16.80;13.60;;;;;;;;;;5075018;28;20208;-68
2022/09/28 03:32:19;;;;;;;19.00;14.15;;;;;;;;;;5074958;28;20202;-67
2022/09/28 03:34:46;;;;;;;18.27;14.57;;;;;;;;;;5074707;28;20207;-68
2022/09/28 03:37:13;;;;;;;16.77;13.63;;;;;;;;;;5074887;28;20190;-68
2022/09/28 03:39:42;;;;;;;18.58;13.93;;;;;;;;;;5075127;28;20204;-68
2022/09/28 03:42:09;;;;;;;20.88;16.45;;;;;;;;;;5074657;28;20212;-68
2022/09/28 03:44:36;;;;;;;20.38;12.90;;;;;;;;;;5074271;28;20212;-69
2022/09/28 03:47:03;;;;;;;19.17;14.27;;;;;;;;;;5074482;28;20198;-68
2022/09/28 03:49:30;;;;;;;20.83;14.93;;;;;;;;;;5074154;28;20297;-68
2022/09/28 03:51:58;;;;;;;20.25;14.52;;;;;;;;;;5073585;28;20217;-69
2022/09/28 03:54:25;;;;;;;18.45;13.63;;;;;;;;;;5073137;28;20205;-68
2022/09/28 03:56:53;;;;;;;23.63;14.77;;;;;;;;;;5073297;28;20198;-68
2022/09/28 03:59:21;;;;;;;20.13;15.32;;;;;;;;;;5073596;28;20201;-68
2022/09/28 04:01:49;;;;;;;17.00;14.20;;;;;;;;;;5073446;28;20675;-68
2022/09/28 04:04:16;;;;;;;19.17;15.10;;;;;;;;;;5073054;28;20214;-68
2022/09/28 04:06:44;;;;;;;20.52;14.48;;;;;;;;;;5074123;28;20194;-69
2022/09/28 04:09:11;;;;;;;20.23;15.30;;;;;;;;;;5073608;28;20190;-69
2022/09/28 04:11:38;;;;;;;17.52;14.75;;;;;;;;;;5074079;28;20194;-68
2022/09/28 04:14:07;;;;;;;19.80;14.30;;;;;;;;;;5073604;28;20204;-68
2022/09/28 04:16:34;;;;;;;22.00;15.85;;;;;;;;;;5073809;28;20328;-68
2022/09/28 04:19:02;;;;;;;22.30;15.77;;;;;;;;;;5074359;28;20182;-68
2022/09/28 04:21:29;;;;;;;24.60;17.30;;;;;;;;;;5073509;28;20651;-68
2022/09/28 04:23:58;;;;;;;22.73;17.65;;;;;;;;;;5073110;28;20225;-67
2022/09/28 04:26:26;;;;;;;23.40;18.05;;;;;;;;;;5073569;28;20194;-68
2022/09/28 04:31:41;;;;;;;20.63;15.45;;;;;;;;;;5073312;28;20212;-68
2022/09/28 04:34:08;;;;;;;22.17;16.92;;;;;;;;;;5073497;28;20194;-68
2022/09/28 04:36:35;;;;;;;21.20;17.45;;;;;;;;;;5073058;28;20669;-68
2022/09/28 04:39:02;;;;;;;24.05;16.90;;;;;;;;;;5073523;28;20552;-68
2022/09/28 04:41:29;;;;;;;21.63;17.23;;;;;;;;;;5073489;28;20204;-68
2022/09/28 04:43:56;;;;;;;27.25;17.80;;;;;;;;;;5073478;28;20240;-68
2022/09/28 04:46:24;;;;;;;20.90;16.48;;;;;;;;;;5073085;28;20201;-68
2022/09/28 04:48:52;;;;;;;33.05;17.80;;;;;;;;;;5073195;28;20201;-68
2022/09/28 04:51:19;;;;;;;24.48;16.95;;;;;;;;;;5073211;28;20194;-68
2022/09/28 04:53:47;;;;;;;22.92;17.50;;;;;;;;;;5073076;28;20194;-68
2022/09/28 04:56:14;;;;;;;23.73;17.65;;;;;;;;;;5073151;28;20205;-68
2022/09/28 04:58:42;;;;;;;24.88;16.58;;;;;;;;;;5072937;28;20194;-67
2022/09/28 05:01:10;;;;;;;24.02;18.38;;;;;;;;;;5073546;28;20197;-67
2022/09/28 05:03:37;;;;;;;24.35;18.02;;;;;;;;;;5073134;28;20221;-68
2022/09/28 05:06:06;;;;;;;29.13;19.02;;;;;;;;;;5072928;28;20212;-68
2022/09/28 05:08:34;;;;;;;27.55;19.65;;;;;;;;;;5072969;28;20190;-68
2022/09/28 05:11:02;;;;;;;29.55;18.13;;;;;;;;;;5073054;28;20208;-67
2022/09/28 05:13:30;;;;;;;28.75;18.80;;;;;;;;;;5072790;28;20390;-67
2022/09/28 05:15:58;;;;;;;26.75;18.77;;;;;;;;;;5072848;28;20284;-67
2022/09/28 05:18:25;;;;;;;25.75;18.48;;;;;;;;;;5073317;28;20222;-67
2022/09/28 05:20:52;;;;;;;22.25;17.90;;;;;;;;;;5072691;28;20209;-68
2022/09/28 05:23:21;;;;;;;29.23;16.02;;;;;;;;;;5072443;28;20213;-67
2022/09/28 05:25:48;;;;;;;28.65;17.65;;;;;;;;;;5072888;28;20198;-68
2022/09/28 05:28:15;;;;;;;27.42;19.05;;;;;;;;;;5072579;28;20201;-68
2022/09/28 05:30:42;;;;;;;27.02;18.42;;;;;;;;;;5072514;28;20220;-68
2022/09/28 05:33:09;;;;;;;22.75;18.50;;;;;;;;;;5073042;28;20198;-68
2022/09/28 05:35:37;;;;;;;29.17;19.33;;;;;;;;;;5076706;28;20190;-68
2022/09/28 05:38:04;;;;;;;27.80;17.10;;;;;;;;;;5077046;28;20197;-68
2022/09/28 05:40:33;;;;;;;23.98;16.40;;;;;;;;;;5076959;28;20197;-68
2022/09/28 05:43:01;;;;;;;26.38;18.23;;;;;;;;;;5076587;28;20213;-68
2022/09/28 05:45:28;;;;;;;23.77;17.75;;;;;;;;;;5076928;28;20205;-68
2022/09/28 05:47:56;;;;;;;24.55;17.73;;;;;;;;;;5077387;28;20194;-67
2022/09/28 05:50:23;;;;;;;25.88;18.30;;;;;;;;;;5077189;28;20200;-68
2022/09/28 05:52:58;;;;;;;26.92;18.35;;;;;;;;;;5076723;28;20215;-67
2022/09/28 05:55:25;;;;;;;23.38;17.52;;;;;;;;;;5077485;28;20543;-67
2022/09/28 05:57:54;;;;;;;24.02;18.45;;;;;;;;;;5076646;28;20289;-68
2022/09/28 06:00:21;;;;;;;27.40;20.15;;;;;;;;;;5076272;28;20646;-67
2022/09/28 06:03:01;;;;;;;24.08;17.27;;;;;;;;;;5076078;28;20288;-70
2022/09/28 06:05:30;;;;;;;25.70;16.33;;;;;;;;;;5076627;28;20189;-68
2022/09/28 06:07:57;;;;;;;24.27;17.13;;;;;;;;;;5076417;28;20201;-68
2022/09/28 06:10:24;;;;;;;25.95;18.13;;;;;;;;;;5076497;28;20607;-67
2022/09/28 06:12:56;;;;;;;22.70;16.95;;;;;;;;;;5076046;28;20197;-67
2022/09/28 06:15:24;;;;;;;24.27;16.95;;;;;;;;;;5076367;28;20647;-67
2022/09/28 06:17:56;;;;;;;21.08;16.23;;;;;;;;;;5076066;28;20230;-68
2022/09/28 06:20:23;;;;;;;25.20;17.30;;;;;;;;;;5076451;28;20647;-68
2022/09/28 06:22:51;;;;;;;22.17;17.20;;;;;;;;;;5076218;28;20200;-67
2022/09/28 06:25:18;;;;;;;21.45;16.63;;;;;;;;;;5075807;28;20660;-68
2022/09/28 06:27:53;;;;;;;26.83;17.65;;;;;;;;;;5075863;28;20201;-68
2022/09/28 06:30:23;;;;;;;23.70;17.15;;;;;;;;;;5076118;28;20181;-69
2022/09/28 06:32:53;;;;;;;26.20;17.77;;;;;;;;;;5075638;28;20199;-68
2022/09/28 06:35:20;;;;;;;27.08;16.38;;;;;;;;;;5075719;28;20753;-71
2022/09/28 06:37:48;;;;;;;21.38;16.65;;;;;;;;;;5075860;28;20194;-68
2022/09/28 06:40:15;;;;;;;25.38;16.70;;;;;;;;;;5076299;28;20194;-69
2022/09/28 06:42:42;;;;;;;33.00;17.17;;;;;;;;;;5074895;28;20216;-69
2022/09/28 06:45:10;;;;;;;24.50;18.10;;;;;;;;;;5074689;28;20220;-68
2022/09/28 06:47:40;;;;;;;27.17;18.10;;;;;;;;;;5075556;28;20212;-68
2022/09/28 06:50:11;;;;;;;23.92;17.10;;;;;;;;;;5075569;28;20209;-68
2022/09/28 06:52:38;;;;;;;24.15;19.15;;;;;;;;;;5075791;28;20187;-69
2022/09/28 06:55:06;;;;;;;24.67;17.92;;;;;;;;;;5075870;28;20202;-69
2022/09/28 06:57:33;;;;;;;22.95;16.80;;;;;;;;;;5075346;28;20288;-68
2022/09/28 07:00:01;;;;;;;29.40;19.40;;;;;;;;;;5075262;28;20195;-68
2022/09/28 07:02:28;;;;;;;23.88;16.98;;;;;;;;;;5075382;28;20277;-68
2022/09/28 07:04:56;;;;;;;24.35;18.38;;;;;;;;;;5075182;28;20229;-68
2022/09/28 07:07:24;;;;;;;23.58;16.75;;;;;;;;;;5075390;28;20201;-68
2022/09/28 07:09:54;;;;;;;24.38;17.42;;;;;;;;;;5075524;28;20232;-67
2022/09/28 07:12:22;;;;;;;30.27;18.90;;;;;;;;;;5075243;28;20523;-68
2022/09/28 07:14:54;;;;;;;29.85;19.77;;;;;;;;;;5075161;28;20198;-68
2022/09/28 07:17:22;;;;;;;24.38;18.05;;;;;;;;;;5075524;28;20580;-68
2022/09/28 07:19:51;;;;;;;24.85;16.92;;;;;;;;;;5075346;28;20207;-68
2022/09/28 07:22:20;;;;;;;26.35;18.88;;;;;;;;;;5075790;28;20202;-67
2022/09/28 07:24:48;;;;;;;24.13;16.13;;;;;;;;;;5076620;28;20231;-68
2022/09/28 07:27:15;;;;;;;28.00;17.33;;;;;;;;;;5078826;28;20300;-69
2022/09/28 07:29:42;;;;;;;24.80;18.75;;;;;;;;;;5078653;28;20258;-68
2022/09/28 07:32:09;;;;;;;22.88;16.42;;;;;;;;;;5081203;28;20200;-69
2022/09/28 07:34:40;;;;;;;24.23;16.40;;;;;;;;;;5076899;28;20208;-68
2022/09/28 07:37:10;;;;;;;27.45;15.85;;;;;;;;;;5075385;28;20183;-69
2022/09/28 07:42:20;;;;;;;21.33;15.65;;;;;;;;;;5074127;28;20193;-68
2022/09/28 07:44:47;;;;;;;23.67;16.77;;;;;;;;;;5074253;28;20226;-69
2022/09/28 07:47:14;;;;;;;23.65;16.55;;;;;;;;;;5074338;28;20194;-69
2022/09/28 07:49:41;;;;;;;19.33;14.30;;;;;;;;;;5056272;28;20195;-68
2022/09/28 07:52:09;;;;;;;20.50;13.77;;;;;;;;;;5054099;28;20487;-68
2022/09/28 07:54:38;;;;;;;18.80;12.80;;;;;;;;;;5054276;28;20238;-67
2022/09/28 07:57:07;;;;;;;19.30;13.30;;;;;;;;;;5052984;28;20445;-67
2022/09/28 07:59:34;;;;;;;17.98;13.20;;;;;;;;;;5054295;28;20206;-67
2022/09/28 08:02:02;;;;;;;19.47;12.33;;;;;;;;;;5054245;28;20199;-67
2022/09/28 08:04:29;;;;;;;21.70;13.23;;;;;;;;;;5053648;28;20575;-68
2022/09/28 08:06:56;;;;;;;20.33;14.20;;;;;;;;;;5053953;28;20643;-67
2022/09/28 08:09:23;;;;;;;16.92;12.73;;;;;;;;;;5053813;28;20442;-67
2022/09/28 08:11:50;;;;;;;18.37;13.37;;;;;;;;;;5054145;28;20551;-67
2022/09/28 08:14:19;;;;;;;22.87;13.73;;;;;;;;;;5072179;28;20456;-67
2022/09/28 08:16:46;;;;;;;15.98;12.10;;;;;;;;;;5073445;28;20479;-68
2022/09/28 08:19:13;;;;;;;18.53;12.17;;;;;;;;;;5073466;28;20205;-68
2022/09/28 08:21:45;;;;;;;18.70;12.70;;;;;;;;;;5073540;28;20952;-68
2022/09/28 08:24:13;;;;;;;14.83;11.23;;;;;;;;;;5073773;28;20302;-68
2022/09/28 08:26:41;;;;;;;18.75;13.25;;;;;;;;;;5073750;28;20458;-67
2022/09/28 08:29:08;;;;;;;15.33;11.50;;;;;;;;;;5073381;28;20702;-67
2022/09/28 08:31:36;;;;;;;13.82;11.07;;;;;;;;;;5073313;28;20448;-67
2022/09/28 08:34:04;;;;;;;17.75;12.93;;;;;;;;;;5073534;28;20193;-68
2022/09/28 08:36:32;;;;;;;17.65;11.90;;;;;;;;;;5073505;28;20200;-68
2022/09/28 08:38:59;;;;;;;15.90;11.27;;;;;;;;;;5073675;28;20194;-68
2022/09/28 08:41:29;;;;;;;17.83;11.93;;;;;;;;;;5073310;28;20327;-67
2022/09/28 08:44:01;;;;;;;17.38;11.68;;;;;;;;;;5073237;28;20482;-68
2022/09/28 08:46:31;;;;;;;13.43;10.97;;;;;;;;;;5073362;28;20201;-67
2022/09/28 08:49:02;;;;;;;15.33;10.60;;;;;;;;;;5072987;28;20911;-67
2022/09/28 08:51:32;;;;;;;13.00;9.68;;;;;;;;;;5073824;28;20432;-67
2022/09/28 08:54:04;;;;;;;13.90;10.77;;;;;;;;;;5073501;28;20197;-68
2022/09/28 08:56:36;;;;;;;13.70;10.73;;;;;;;;;;5073279;28;20546;-67
2022/09/28 08:59:05;;;;;;;16.45;9.80;;;;;;;;;;5072975;28;20439;-67
2022/09/28 09:01:35;;;;;;;21.43;12.37;;;;;;;;;;5073147;28;20202;-67
2022/09/28 09:04:06;;;;;;;14.60;10.20;;;;;;;;;;5073109;28;20474;-68
2022/09/28 09:06:37;;;;;;;17.13;11.18;;;;;;;;;;5073025;28;20194;-68
2022/09/28 09:09:10;;;;;;;13.63;11.20;;;;;;;;;;5072483;28;20182;-67
2022/09/28 09:11:44;;;;;;;15.63;11.43;;;;;;;;;;5073386;28;20428;-67
2022/09/28 09:14:29;;;;;;;12.87;11.10;;;;;;;;;;5072607;28;20447;-67
2022/09/28 09:17:02;;;;;;;12.85;10.23;;;;;;;;;;5062711;28;20491;-68
2022/09/28 09:19:36;;;;;;;18.63;10.20;;;;;;;;;;5073284;28;20274;-68
2022/09/28 09:22:10;;;;;;;16.40;10.97;;;;;;;;;;5073045;28;20456;-68
2022/09/28 09:24:41;;;;;;;16.67;12.02;;;;;;;;;;5072536;28;20468;-68
2022/09/28 09:27:15;;;;;;;16.60;12.07;;;;;;;;;;5072715;28;20188;-68
2022/09/28 09:29:55;;;;;;;12.43;10.03;;;;;;;;;;5073025;28;20530;-67
2022/09/28 09:32:32;;;;;;;14.73;10.87;;;;;;;;;;5072996;28;20432;-67
2022/09/28 09:35:10;;;;;;;13.88;10.30;;;;;;;;;;5073095;28;20446;-67
2022/09/28 09:37:50;;;;;;;12.33;10.67;;;;;;;;;;5072879;28;20236;-68
2022/09/28 09:40:27;;;;;;;12.00;9.17;;;;;;;;;;5072709;28;20428;-67
2022/09/28 09:43:05;;;;;;;11.67;10.20;;;;;;;;;;5072841;28;20486;-67
2022/09/28 09:45:40;;;;;;;16.60;10.67;;;;;;;;;;5072675;28;20468;-67
2022/09/28 09:48:10;;;;;;;15.53;10.20;;;;;;;;;;5072905;28;20447;-68
2022/09/28 09:50:42;;;;;;;13.40;10.77;;;;;;;;;;5072207;28;20929;-67
2022/09/28 09:53:16;;;;;;;13.80;10.10;;;;;;;;;;5072402;28;20520;-68
2022/09/28 09:55:45;;;;;;;14.03;9.50;;;;;;;;;;5072787;28;20490;-67
2022/09/28 09:58:15;;;;;;;10.40;8.40;;;;;;;;;;5072437;28;20432;-68
2022/09/28 10:00:45;;;;;;;11.50;7.87;;;;;;;;;;5072297;28;20810;-68
2022/09/28 10:03:17;;;;;;;12.67;8.20;;;;;;;;;;5072530;28;20451;-68
2022/09/28 10:05:48;;;;;;;9.87;7.30;;;;;;;;;;5072643;28;20504;-68
2022/09/28 10:08:16;;;;;;;9.20;8.10;;;;;;;;;;5072728;28;20900;-68
2022/09/28 10:10:48;;;;;;;10.87;8.60;;;;;;;;;;5072398;28;20436;-67
2022/09/28 10:13:15;;;;;;;11.30;8.47;;;;;;;;;;5072724;28;20486;-68
2022/09/28 10:15:44;;;;;;;17.53;7.97;;;;;;;;;;5072674;28;20448;-68
2022/09/28 10:18:12;;;;;;;10.10;8.40;;;;;;;;;;5072702;28;20472;-68
2022/09/28 10:20:40;;;;;;;12.50;7.73;;;;;;;;;;5073459;28;20518;-68
2022/09/28 10:23:13;;;;;;;11.67;6.80;;;;;;;;;;5076169;28;20551;-68
2022/09/28 10:25:41;;;;;;;8.53;7.10;;;;;;;;;;5075999;28;20471;-68
2022/09/28 10:28:12;;;;;;;7.20;6.47;;;;;;;;;;5075994;28;20448;-69
2022/09/28 10:30:43;;;;;;;9.10;6.73;;;;;;;;;;5075621;28;20425;-68
2022/09/28 10:33:25;;;;;;;10.03;8.37;;;;;;;;;;5076062;28;20451;-68
2022/09/28 10:35:52;;;;;;;9.70;7.63;;;;;;;;;;5075631;28;20911;-68
2022/09/28 10:38:23;;;;;;;8.67;7.87;;;;;;;;;;5075843;28;20437;-68
2022/09/28 10:40:53;;;;;;;10.07;7.00;;;;;;;;;;5075529;28;20492;-68
2022/09/28 10:43:22;;;;;;;8.23;6.93;;;;;;;;;;5075612;28;20436;-67
2022/09/28 10:46:00;;;;;;;8.70;6.23;;;;;;;;;;5075379;28;20483;-68
2022/09/28 10:48:27;;;;;;;6.40;5.73;;;;;;;;;;5075340;28;20425;-68
2022/09/28 10:50:58;;;;;;;5.13;4.63;;;;;;;;;;5075530;28;20804;-68
2022/09/28 10:53:27;;;;;;;6.37;4.50;;;;;;;;;;5075492;28;20452;-67
2022/09/28 10:55:58;;;;;;;7.47;4.97;;;;;;;;;;5075844;28;20783;-68
2022/09/28 10:58:27;;;;;;;5.53;4.70;;;;;;;;;;5075466;28;20475;-68
2022/09/28 11:00:59;;;;;;;5.83;4.60;;;;;;;;;;5075520;28;20450;-68
2022/09/28 11:03:27;;;;;;;6.23;5.17;;;;;;;;;;5075576;28;20417;-67
2022/09/28 11:05:55;;;;;;;7.37;6.03;;;;;;;;;;5075116;28;20483;-70
2022/09/28 11:08:25;;;;;;;8.70;6.03;;;;;;;;;;5075375;28;20796;-67
2022/09/28 11:11:03;;;;;;;5.87;4.63;;;;;;;;;;5074950;28;20441;-70
2022/09/28 11:13:30;;;;;;;6.40;5.37;;;;;;;;;;5075162;28;20430;-68
2022/09/28 11:15:58;;;;;;;7.53;5.70;;;;;;;;;;5074793;28;20445;-69
2022/09/28 11:18:30;;;;;;;8.93;6.60;;;;;;;;;;5075381;28;20563;-68
2022/09/28 11:21:08;;;;;;;11.03;6.30;;;;;;;;;;5074493;28;20968;-69
2022/09/28 11:23:35;;;;;;;6.17;5.53;;;;;;;;;;5074600;28;20425;-68
2022/09/28 11:26:06;;;;;;;8.07;5.73;;;;;;;;;;5074848;28;21015;-69
2022/09/28 11:28:34;;;;;;;5.80;5.30;;;;;;;;;;5074969;28;20429;-69
2022/09/28 11:31:02;;;;;;;7.10;6.40;;;;;;;;;;5074743;28;20498;-68
2022/09/28 11:33:31;;;;;;;7.97;6.10;;;;;;;;;;5074694;28;20449;-69
2022/09/28 11:36:04;;;;;;;7.33;5.80;;;;;;;;;;5074238;28;20964;-68
2022/09/28 11:38:33;;;;;;;7.87;6.20;;;;;;;;;;5074730;28;20435;-68
2022/09/28 11:41:12;;;;;;;6.87;6.13;;;;;;;;;;5074107;28;20440;-68
2022/09/28 11:43:56;;;;;;;7.03;6.37;;;;;;;;;;5074906;28;20429;-68
2022/09/28 11:46:28;;;;;;;9.10;7.30;;;;;;;;;;5074174;28;20490;-68
2022/09/28 11:48:57;;;;;;;7.43;6.60;;;;;;;;;;5075095;28;20433;-67
2022/09/28 11:51:26;;;;;;;8.83;7.87;;;;;;;;;;5073780;28;20445;-68
2022/09/28 11:53:55;;;;;;;9.63;8.73;;;;;;;;;;5073792;28;20446;-67
2022/09/28 11:56:30;;;;;;;11.17;8.40;;;;;;;;;;5074144;28;20448;-68
2022/09/28 11:58:59;;;;;;;10.40;8.40;;;;;;;;;;5074207;28;20432;-68
2022/09/28 12:01:30;;;;;;;9.20;7.83;;;;;;;;;;5073725;28;20453;-68
2022/09/28 12:03:59;;;;;;;9.47;7.73;;;;;;;;;;5074244;28;20771;-68
2022/09/28 12:06:31;;;;;;;8.70;7.80;;;;;;;;;;5073934;28;20586;-69
2022/09/28 12:09:05;;;;;;;8.73;7.83;;;;;;;;;;5073426;28;20438;-69
2022/09/28 12:11:36;;;;;;;8.60;7.70;;;;;;;;;;5073880;28;20945;-69
2022/09/28 12:14:05;;;;;;;8.90;7.10;;;;;;;;;;5074333;28;20449;-68
2022/09/28 12:16:36;;;;;;;9.80;7.13;;;;;;;;;;5073751;28;20488;-68
2022/09/28 12:19:04;;;;;;;6.40;5.80;;;;;;;;;;5073915;28;20793;-68
2022/09/28 12:21:35;;;;;;;9.00;7.40;;;;;;;;;;5073389;28;20443;-67
2022/09/28 12:24:04;;;;;;;7.70;6.60;;;;;;;;;;5074067;28;20466;-67
2022/09/28 12:26:34;;;;;;;8.40;7.13;;;;;;;;;;5073554;28;21027;-68
2022/09/28 12:29:06;;;;;;;8.33;7.53;;;;;;;;;;5073849;28;20444;-68
2022/09/28 12:31:35;;;;;;;6.47;5.93;;;;;;;;;;5072527;28;20463;-67
2022/09/28 12:34:03;;;;;;;8.07;7.37;;;;;;;;;;5073419;28;20446;-68
2022/09/28 12:36:39;;;;;;;7.50;6.57;;;;;;;;;;5073488;28;20452;-67
2022/09/28 12:39:13;;;;;;;7.20;6.50;;;;;;;;;;5073247;28;20465;-68
2022/09/28 12:41:48;;;;;;;6.40;5.80;;;;;;;;;;5072923;28;20443;-68
2022/09/28 12:44:32;;;;;;;5.63;5.13;;;;;;;;;;5072385;28;20428;-68
2022/09/28 12:47:14;;;;;;;6.53;5.23;;;;;;;;;;5073218;28;20496;-68
2022/09/28 12:49:49;;;;;;;7.03;5.70;;;;;;;;;;5073248;28;20429;-67
2022/09/28 12:52:23;;;;;;;5.03;4.53;;;;;;;;;;5073179;28;20821;-67
2022/09/28 12:55:11;;;;;;;5.50;5.00;;;;;;;;;;5072676;28;20437;-68
2022/09/28 12:57:42;;;;;;;4.80;4.40;;;;;;;;;;5067948;28;20460;-68
2022/09/28 13:00:12;;;;;;;8.40;5.60;;;;;;;;;;5073201;28;20435;-67
2022/09/28 13:02:49;;;;;;;5.93;4.80;;;;;;;;;;5072984;28;20434;-67
2022/09/28 13:05:23;;;;;;;5.90;5.40;;;;;;;;;;5072731;28;20445;-67
2022/09/28 13:07:53;;;;;;;5.17;4.77;;;;;;;;;;5072808;28;20894;-68
2022/09/28 13:10:24;;;;;;;6.17;4.53;;;;;;;;;;5072710;28;20449;-67
2022/09/28 13:12:59;;;;;;;4.20;3.83;;;;;;;;;;5073349;28;20433;-68
2022/09/28 13:15:30;;;;;;;3.80;3.50;;;;;;;;;;5073335;28;20437;-67
2022/09/28 13:18:18;;;;;;;3.73;3.43;;;;;;;;;;5072628;28;20479;-68
2022/09/28 13:20:52;;;;;;;4.57;4.27;;;;;;;;;;5068609;28;20449;-68
2022/09/28 13:23:21;;;;;;;4.20;3.80;;;;;;;;;;5072947;28;20775;-67
2022/09/28 13:25:54;;;;;;;4.10;3.80;;;;;;;;;;5072583;28;20475;-67
2022/09/28 13:28:22;;;;;;;4.30;4.00;;;;;;;;;;5072823;28;20451;-67
2022/09/28 13:30:52;;;;;;;4.20;3.90;;;;;;;;;;5072758;28;20450;-67
2022/09/28 13:33:21;;;;;;;4.13;3.83;;;;;;;;;;5073116;28;20464;-67
2022/09/28 13:35:48;;;;;;;3.70;3.40;;;;;;;;;;5072478;28;20451;-67
2022/09/28 13:38:46;;;;;;;5.77;3.77;;;;;;;;;;5072628;28;20446;-67
2022/09/28 13:41:15;;;;;;;3.80;3.40;;;;;;;;;;5010789;28;20444;-67
2022/09/28 13:43:52;;;;;;;5.70;3.90;;;;;;;;;;5059246;28;20807;-67
2022/09/28 13:46:26;;;;;;;3.70;3.40;;;;;;;;;;5072396;28;20489;-67
2022/09/28 13:48:58;;;;;;;4.80;4.33;;;;;;;;;;5072995;28;20910;-67
2022/09/28 13:51:37;;;;;;;2.90;2.60;;;;;;;;;;5072458;28;20431;-67
2022/09/28 13:54:16;;;;;;;3.70;3.40;;;;;;;;;;5072659;28;20977;-67
2022/09/28 13:56:48;;;;;;;3.00;2.80;;;;;;;;;;5076449;28;20438;-67
2022/09/28 13:59:18;;;;;;;3.27;3.07;;;;;;;;;;5076708;28;20432;-67
2022/09/28 14:01:54;;;;;;;4.70;3.30;;;;;;;;;;5076504;28;20451;-67
2022/09/28 14:04:22;;;;;;;3.10;2.90;;;;;;;;;;5076361;28;20786;-67
2022/09/28 14:06:52;;;;;;;3.83;3.33;;;;;;;;;;5076352;28;20568;-67
2022/09/28 14:09:41;;;;;;;3.47;3.17;;;;;;;;;;5076495;28;20508;-67
2022/09/28 14:12:26;;;;;;;3.60;3.30;;;;;;;;;;5076311;28;20462;-67
2022/09/28 14:14:54;;;;;;;4.60;4.30;;;;;;;;;;5076737;28;20447;-67
2022/09/28 14:17:54;;;;;;;5.07;4.57;;;;;;;;;;5076069;28;20965;-67
2022/09/28 14:20:26;;;;;;;4.10;3.70;;;;;;;;;;5076288;28;20427;-67
2022/09/28 14:23:11;;;;;;;6.00;3.40;;;;;;;;;;5075824;28;20444;-68
2022/09/28 14:25:41;;;;;;;2.90;2.70;;;;;;;;;;5076334;28;20451;-68
2022/09/28 14:28:22;;;;;;;3.50;3.20;;;;;;;;;;5076226;28;20433;-68
2022/09/28 14:30:51;;;;;;;3.87;3.57;;;;;;;;;;5076422;28;20548;-68
2022/09/28 14:33:24;;;;;;;3.53;3.27;;;;;;;;;;5075528;28;20437;-68
2022/09/28 14:35:55;;;;;;;3.40;3.10;;;;;;;;;;5075895;28;20930;-68
2022/09/28 14:41:12;;;;;;;3.20;2.90;;;;;;;;;;5075721;28;20497;-68
2022/09/28 14:44:01;;;;;;;3.10;2.90;;;;;;;;;;5076004;28;20422;-70
2022/09/28 14:46:35;;;;;;;3.30;3.10;;;;;;;;;;5070878;28;20497;-68
2022/09/28 14:49:03;;;;;;;5.10;2.90;;;;;;;;;;5075828;28;20869;-67
2022/09/28 14:52:01;;;;;;;7.70;5.20;;;;;;;;;;5075481;28;20941;-67
2022/09/28 14:54:36;;;;;;;4.47;3.50;;;;;;;;;;5013354;28;20436;-67